createdAt,value
2018-12-29T00:01:19.429Z,69.72
2018-12-29T00:03:52.863Z,69.67
2018-12-29T00:06:26.307Z,69.68
2018-12-29T00:08:59.821Z,69.62
2018-12-29T00:11:33.361Z,69.58
2018-12-29T00:14:07.960Z,69.61
2018-12-29T00:16:41.507Z,69.41
2018-12-29T00:19:15.011Z,69.58
2018-12-29T00:21:48.492Z,69.50
2018-12-29T00:24:21.995Z,69.63
2018-12-29T00:26:55.619Z,69.72
2018-12-29T00:29:29.127Z,69.52
2018-12-29T00:32:02.867Z,69.60
2018-12-29T00:34:36.313Z,69.56
2018-12-29T00:37:09.860Z,69.53
2018-12-29T00:39:43.367Z,69.53
2018-12-29T00:42:16.988Z,69.67
2018-12-29T00:44:50.580Z,69.58
2018-12-29T00:47:24.192Z,69.62
2018-12-29T00:49:57.673Z,69.42
2018-12-29T00:52:31.131Z,69.46
2018-12-29T00:55:04.722Z,69.49
2018-12-29T00:57:38.272Z,69.39
2018-12-29T01:00:11.859Z,69.59
2018-12-29T01:02:45.490Z,69.54
2018-12-29T01:05:19.113Z,69.52
2018-12-29T01:07:52.717Z,69.53
2018-12-29T01:10:26.151Z,69.46
2018-12-29T01:12:59.868Z,69.50
2018-12-29T01:15:33.470Z,69.34
2018-12-29T01:18:07.294Z,69.47
2018-12-29T01:20:40.842Z,69.34
2018-12-29T01:23:14.448Z,69.42
2018-12-29T01:25:47.958Z,69.42
2018-12-29T01:28:21.528Z,69.48
2018-12-29T01:30:54.957Z,69.38
2018-12-29T01:33:28.591Z,69.30
2018-12-29T01:36:02.097Z,69.31
2018-12-29T01:38:35.706Z,69.42
2018-12-29T01:41:09.213Z,69.45
2018-12-29T01:43:42.744Z,69.42
2018-12-29T01:46:16.266Z,69.52
2018-12-29T01:48:49.970Z,69.43
2018-12-29T01:51:23.468Z,69.51
2018-12-29T01:53:57.087Z,69.38
2018-12-29T01:56:30.601Z,69.45
2018-12-29T01:59:04.240Z,69.44
2018-12-29T02:01:37.697Z,69.18
2018-12-29T02:04:11.478Z,69.46
2018-12-29T02:06:44.903Z,69.36
2018-12-29T02:09:18.536Z,69.48
2018-12-29T02:11:51.976Z,69.53
2018-12-29T02:14:25.593Z,69.67
2018-12-29T02:16:59.092Z,69.67
2018-12-29T02:19:32.609Z,69.44
2018-12-29T02:22:06.146Z,69.68
2018-12-29T02:24:39.671Z,69.57
2018-12-29T02:27:13.212Z,69.49
2018-12-29T02:29:46.816Z,69.50
2018-12-29T02:32:20.274Z,69.52
2018-12-29T02:34:53.842Z,69.43
2018-12-29T02:37:27.456Z,69.45
2018-12-29T02:40:00.885Z,69.53
2018-12-29T02:42:34.519Z,69.48
2018-12-29T02:45:08.122Z,69.84
2018-12-29T02:47:41.810Z,69.70
2018-12-29T02:50:15.442Z,69.80
2018-12-29T02:52:49.051Z,69.89
2018-12-29T02:55:22.498Z,69.84
2018-12-29T02:57:56.093Z,69.67
2018-12-29T03:00:29.663Z,69.74
2018-12-29T03:03:03.151Z,69.74
2018-12-29T03:05:36.592Z,69.61
2018-12-29T03:08:10.145Z,69.74
2018-12-29T03:10:43.584Z,69.71
2018-12-29T03:13:17.132Z,69.70
2018-12-29T03:15:50.636Z,69.72
2018-12-29T03:18:24.446Z,69.74
2018-12-29T03:20:58.029Z,69.69
2018-12-29T03:23:31.674Z,69.65
2018-12-29T03:26:05.257Z,69.80
2018-12-29T03:28:38.817Z,69.92
2018-12-29T03:31:12.274Z,69.82
2018-12-29T03:33:45.833Z,69.85
2018-12-29T03:36:19.344Z,69.58
2018-12-29T03:38:53.001Z,69.56
2018-12-29T03:41:26.584Z,69.60
2018-12-29T03:44:00.207Z,69.56
2018-12-29T03:46:33.804Z,69.58
2018-12-29T03:49:07.479Z,69.50
2018-12-29T03:51:40.917Z,69.50
2018-12-29T03:54:14.523Z,69.61
2018-12-29T03:56:48.042Z,69.53
2018-12-29T03:59:21.643Z,69.72
2018-12-29T04:01:55.152Z,69.71
2018-12-29T04:04:29.050Z,69.85
2018-12-29T04:07:02.649Z,69.83
2018-12-29T04:09:36.188Z,69.57
2018-12-29T04:12:12.682Z,69.74
2018-12-29T04:14:46.245Z,69.72
2018-12-29T04:17:19.696Z,69.72
2018-12-29T04:19:53.609Z,69.59
2018-12-29T04:22:27.122Z,69.54
2018-12-29T04:25:00.836Z,69.62
2018-12-29T04:27:34.382Z,69.74
2018-12-29T04:30:08.074Z,69.70
2018-12-29T04:32:41.613Z,69.73
2018-12-29T04:35:15.252Z,69.21
2018-12-29T04:37:48.755Z,69.83
2018-12-29T04:40:22.326Z,69.77
2018-12-29T04:42:55.765Z,69.76
2018-12-29T04:45:29.493Z,69.64
2018-12-29T04:48:03.027Z,69.59
2018-12-29T04:50:36.567Z,69.69
2018-12-29T04:53:10.089Z,69.66
2018-12-29T04:55:43.648Z,69.79
2018-12-29T04:58:17.226Z,69.64
2018-12-29T05:00:50.773Z,69.70
2018-12-29T05:03:24.291Z,69.52
2018-12-29T05:05:57.998Z,69.59
2018-12-29T05:08:31.508Z,69.60
2018-12-29T05:11:05.045Z,69.73
2018-12-29T05:13:38.546Z,69.61
2018-12-29T05:16:13.032Z,69.64
2018-12-29T05:18:46.814Z,69.49
2018-12-29T05:21:20.363Z,69.55
2018-12-29T05:23:53.893Z,69.58
2018-12-29T05:26:27.522Z,69.39
2018-12-29T05:29:01.040Z,69.57
2018-12-29T05:31:34.646Z,69.70
2018-12-29T05:34:08.153Z,69.73
2018-12-29T05:36:41.684Z,69.60
2018-12-29T05:39:15.188Z,69.71
2018-12-29T05:41:48.904Z,69.69
2018-12-29T05:44:22.425Z,69.65
2018-12-29T05:46:55.972Z,69.70
2018-12-29T05:49:29.489Z,69.83
2018-12-29T05:52:02.951Z,69.68
2018-12-29T05:54:36.467Z,69.76
2018-12-29T05:57:10.232Z,69.62
2018-12-29T05:59:43.851Z,69.63
2018-12-29T06:02:17.374Z,69.78
2018-12-29T06:04:50.953Z,69.96
2018-12-29T06:07:24.486Z,69.80
2018-12-29T06:09:57.926Z,69.80
2018-12-29T06:12:31.561Z,69.78
2018-12-29T06:15:05.672Z,69.86
2018-12-29T06:17:39.311Z,69.69
2018-12-29T06:20:12.819Z,69.91
2018-12-29T06:22:46.289Z,69.87
2018-12-29T06:25:19.871Z,69.88
2018-12-29T06:27:53.498Z,70.08
2018-12-29T06:30:27.067Z,69.91
2018-12-29T06:33:00.538Z,70.06
2018-12-29T06:35:34.049Z,69.93
2018-12-29T06:38:07.688Z,70.06
2018-12-29T06:40:41.265Z,69.86
2018-12-29T06:43:14.756Z,69.97
2018-12-29T06:45:48.286Z,69.99
2018-12-29T06:48:21.835Z,69.90
2018-12-29T06:50:55.336Z,69.96
2018-12-29T06:53:28.954Z,69.92
2018-12-29T06:56:02.531Z,69.89
2018-12-29T06:58:36.175Z,70.07
2018-12-29T07:01:09.664Z,70.04
2018-12-29T07:03:43.214Z,70.20
2018-12-29T07:06:16.727Z,70.14
2018-12-29T07:08:50.278Z,70.15
2018-12-29T07:11:23.793Z,70.17
2018-12-29T07:13:57.433Z,70.24
2018-12-29T07:16:30.893Z,70.19
2018-12-29T07:19:04.787Z,70.12
2018-12-29T07:21:38.299Z,70.17
2018-12-29T07:24:11.912Z,70.25
2018-12-29T07:26:45.415Z,70.22
2018-12-29T07:29:18.978Z,70.27
2018-12-29T07:31:52.477Z,70.32
2018-12-29T07:34:25.955Z,70.29
2018-12-29T07:36:59.466Z,70.25
2018-12-29T07:39:33.081Z,70.04
2018-12-29T07:42:06.585Z,70.30
2018-12-29T07:44:40.208Z,70.28
2018-12-29T07:47:13.721Z,70.35
2018-12-29T07:49:47.348Z,70.28
2018-12-29T07:52:20.938Z,70.21
2018-12-29T07:54:54.550Z,70.35
2018-12-29T07:57:28.056Z,70.37
2018-12-29T08:00:01.703Z,70.31
2018-12-29T08:02:36.864Z,70.40
2018-12-29T08:05:10.486Z,70.22
2018-12-29T08:07:44.000Z,70.35
2018-12-29T08:10:17.690Z,70.37
2018-12-29T08:12:51.198Z,70.28
2018-12-29T08:15:24.913Z,70.32
2018-12-29T08:17:58.343Z,70.31
2018-12-29T08:20:31.906Z,70.27
2018-12-29T08:23:05.500Z,70.29
2018-12-29T08:25:39.079Z,70.32
2018-12-29T08:28:12.596Z,70.22
2018-12-29T08:30:46.147Z,70.24
2018-12-29T08:33:19.661Z,70.28
2018-12-29T08:35:53.400Z,70.27
2018-12-29T08:38:27.066Z,70.35
2018-12-29T08:41:00.644Z,70.33
2018-12-29T08:43:34.124Z,70.00
2018-12-29T08:46:07.711Z,70.30
2018-12-29T08:48:41.383Z,70.19
2018-12-29T08:51:16.195Z,70.24
2018-12-29T08:53:50.075Z,70.13
2018-12-29T08:56:23.789Z,70.17
2018-12-29T08:58:57.373Z,70.13
2018-12-29T09:01:30.992Z,70.31
2018-12-29T09:04:04.792Z,70.29
2018-12-29T09:06:38.497Z,70.19
2018-12-29T09:09:12.000Z,70.12
2018-12-29T09:11:45.618Z,70.17
2018-12-29T09:14:19.132Z,70.18
2018-12-29T09:16:52.839Z,70.19
2018-12-29T09:19:27.384Z,70.17
2018-12-29T09:22:01.094Z,70.21
2018-12-29T09:24:34.680Z,70.27
2018-12-29T09:27:08.701Z,70.33
2018-12-29T09:29:42.317Z,70.30
2018-12-29T09:32:15.927Z,70.37
2018-12-29T09:34:49.443Z,70.35
2018-12-29T09:37:23.054Z,70.24
2018-12-29T09:39:56.650Z,70.27
2018-12-29T09:42:30.268Z,69.43
2018-12-29T09:45:04.103Z,70.37
2018-12-29T09:47:37.725Z,70.33
2018-12-29T09:50:11.183Z,70.29
2018-12-29T09:52:44.827Z,70.38
2018-12-29T09:55:18.409Z,70.23
2018-12-29T09:57:52.111Z,70.24
2018-12-29T10:00:25.630Z,70.06
2018-12-29T10:02:59.292Z,70.26
2018-12-29T10:05:32.815Z,70.17
2018-12-29T10:08:06.357Z,70.21
2018-12-29T10:10:39.979Z,70.11
2018-12-29T10:13:13.527Z,70.18
2018-12-29T10:15:47.084Z,70.40
2018-12-29T10:18:20.749Z,70.49
2018-12-29T10:20:54.261Z,70.56
2018-12-29T10:23:27.806Z,70.42
2018-12-29T10:26:01.336Z,70.32
2018-12-29T10:28:34.877Z,70.34
2018-12-29T10:31:08.393Z,70.07
2018-12-29T10:33:42.012Z,69.99
2018-12-29T10:36:15.521Z,70.00
2018-12-29T10:38:49.130Z,70.00
2018-12-29T10:41:22.597Z,70.16
2018-12-29T10:43:56.172Z,70.08
2018-12-29T10:46:29.700Z,70.15
2018-12-29T10:49:03.326Z,70.18
2018-12-29T10:51:36.838Z,70.13
2018-12-29T10:54:10.548Z,70.15
2018-12-29T10:56:43.989Z,69.99
2018-12-29T10:59:17.530Z,70.25
2018-12-29T11:01:51.058Z,70.12
2018-12-29T11:04:24.616Z,70.09
2018-12-29T11:06:58.141Z,70.01
2018-12-29T11:09:31.861Z,70.09
2018-12-29T11:12:05.380Z,69.97
2018-12-29T11:14:39.148Z,69.96
2018-12-29T11:17:12.678Z,69.89
2018-12-29T11:19:46.241Z,70.09
2018-12-29T11:22:19.758Z,69.99
2018-12-29T11:24:53.318Z,69.95
2018-12-29T11:27:26.832Z,69.94
2018-12-29T11:30:00.429Z,69.89
2018-12-29T11:32:33.956Z,70.09
2018-12-29T11:35:07.503Z,70.01
2018-12-29T11:37:41.137Z,70.01
2018-12-29T11:40:14.773Z,69.95
2018-12-29T11:42:48.878Z,70.14
2018-12-29T11:45:22.590Z,70.14
2018-12-29T11:47:56.366Z,70.14
2018-12-29T11:50:30.185Z,70.04
2018-12-29T11:53:03.678Z,70.01
2018-12-29T11:55:37.376Z,70.13
2018-12-29T11:58:10.820Z,70.17
2018-12-29T12:00:44.524Z,70.17
2018-12-29T12:03:18.355Z,70.15
2018-12-29T12:05:52.240Z,69.93
2018-12-29T12:08:25.853Z,69.89
2018-12-29T12:10:59.465Z,69.74
2018-12-29T12:13:32.905Z,69.80
2018-12-29T12:16:06.686Z,69.80
2018-12-29T12:18:40.379Z,69.65
2018-12-29T12:21:14.208Z,69.83
2018-12-29T12:23:47.752Z,69.64
2018-12-29T12:26:21.301Z,69.66
2018-12-29T12:28:54.827Z,69.55
2018-12-29T12:31:33.349Z,69.62
2018-12-29T12:34:09.304Z,69.82
2018-12-29T12:36:43.200Z,69.64
2018-12-29T12:39:16.790Z,69.62
2018-12-29T12:41:50.344Z,69.66
2018-12-29T12:44:23.942Z,69.25
2018-12-29T12:46:57.499Z,69.67
2018-12-29T12:49:31.052Z,69.67
2018-12-29T12:52:05.243Z,69.72
2018-12-29T12:54:38.878Z,69.62
2018-12-29T12:57:13.015Z,69.62
2018-12-29T12:59:47.005Z,69.63
2018-12-29T13:02:20.984Z,69.57
2018-12-29T13:05:01.141Z,69.62
2018-12-29T13:07:34.844Z,69.56
2018-12-29T13:10:08.817Z,69.39
2018-12-29T13:12:42.370Z,69.40
2018-12-29T13:15:15.942Z,69.53
2018-12-29T13:18:00.839Z,69.50
2018-12-29T13:20:59.463Z,68.91
2018-12-29T13:23:33.614Z,68.85
2018-12-29T13:26:07.791Z,69.59
2018-12-29T13:28:41.424Z,69.59
2018-12-29T13:31:15.026Z,69.33
2018-12-29T13:33:48.632Z,68.85
2018-12-29T13:36:22.306Z,69.63
2018-12-29T13:38:55.841Z,69.48
2018-12-29T13:41:29.744Z,69.77
2018-12-29T13:44:03.381Z,69.08
2018-12-29T13:46:36.998Z,69.46
2018-12-29T13:49:10.502Z,69.64
2018-12-29T13:51:44.094Z,69.51
2018-12-29T13:54:18.065Z,69.67
2018-12-29T13:57:04.315Z,69.36
2018-12-29T13:59:37.837Z,69.26
2018-12-29T14:02:11.735Z,69.51
2018-12-29T14:04:45.278Z,69.48
2018-12-29T14:07:18.792Z,68.69
2018-12-29T14:09:52.431Z,69.26
2018-12-29T14:12:25.949Z,69.50
2018-12-29T14:15:00.477Z,69.26
2018-12-29T14:17:34.009Z,69.00
2018-12-29T14:20:07.824Z,69.32
2018-12-29T14:22:41.433Z,69.39
2018-12-29T14:25:15.136Z,69.56
2018-12-29T14:27:48.660Z,69.56
2018-12-29T14:30:22.319Z,68.42
2018-12-29T14:32:55.832Z,69.67
2018-12-29T14:35:29.488Z,69.69
2018-12-29T14:38:03.086Z,69.63
2018-12-29T14:40:36.661Z,69.53
2018-12-29T14:43:10.177Z,69.30
2018-12-29T14:45:43.913Z,69.36
2018-12-29T14:48:17.447Z,69.41
2018-12-29T14:50:51.095Z,69.38
2018-12-29T14:53:24.604Z,69.52
2018-12-29T14:55:58.402Z,69.43
2018-12-29T14:58:32.006Z,69.54
2018-12-29T15:01:05.692Z,68.96
2018-12-29T15:03:39.291Z,69.61
2018-12-29T15:06:13.250Z,69.50
2018-12-29T15:08:46.765Z,69.42
2018-12-29T15:11:20.303Z,69.31
2018-12-29T15:13:53.812Z,69.28
2018-12-29T15:16:27.454Z,69.31
2018-12-29T15:19:00.979Z,69.26
2018-12-29T15:21:34.860Z,69.58
2018-12-29T15:24:09.011Z,69.66
2018-12-29T15:26:42.635Z,69.58
2018-12-29T15:29:16.534Z,69.53
2018-12-29T15:31:50.085Z,69.58
2018-12-29T15:34:23.586Z,69.74
2018-12-29T15:36:57.219Z,69.51
2018-12-29T15:39:33.110Z,69.96
2018-12-29T15:42:07.334Z,69.78
2018-12-29T15:44:40.935Z,69.94
2018-12-29T15:47:14.703Z,69.73
2018-12-29T15:49:48.494Z,69.94
2018-12-29T15:52:22.372Z,70.20
2018-12-29T15:54:56.122Z,70.36
2018-12-29T15:57:29.695Z,70.46
2018-12-29T16:00:03.278Z,70.60
2018-12-29T16:02:36.924Z,71.09
2018-12-29T16:05:10.633Z,70.90
2018-12-29T16:07:44.555Z,70.96
2018-12-29T16:10:18.223Z,70.63
2018-12-29T16:12:52.019Z,70.82
2018-12-29T16:15:26.042Z,70.78
2018-12-29T16:17:59.714Z,71.08
2018-12-29T16:20:33.229Z,70.83
2018-12-29T16:23:08.826Z,70.60
2018-12-29T16:25:42.444Z,70.70
2018-12-29T16:28:16.014Z,70.51
2018-12-29T16:30:49.540Z,70.59
2018-12-29T16:33:23.348Z,70.69
2018-12-29T16:35:57.330Z,71.18
2018-12-29T16:38:30.789Z,71.13
2018-12-29T16:41:04.766Z,70.99
2018-12-29T16:43:38.321Z,71.36
2018-12-29T16:46:11.843Z,71.20
2018-12-29T16:48:45.485Z,70.95
2018-12-29T16:51:19.472Z,71.09
2018-12-29T16:53:53.184Z,71.10
2018-12-29T16:56:26.797Z,71.00
2018-12-29T16:59:00.338Z,71.14
2018-12-29T17:01:33.860Z,71.12
2018-12-29T17:04:07.497Z,71.12
2018-12-29T17:06:41.293Z,71.39
2018-12-29T17:09:14.793Z,71.32
2018-12-29T17:11:52.389Z,71.09
2018-12-29T17:14:23.708Z,71.12
2018-12-29T17:16:57.228Z,71.28
2018-12-29T17:19:31.009Z,70.85
2018-12-29T17:22:04.522Z,71.49
2018-12-29T17:24:38.257Z,71.24
2018-12-29T17:27:11.952Z,71.32
2018-12-29T17:29:45.518Z,71.36
2018-12-29T17:32:18.959Z,71.20
2018-12-29T17:34:52.586Z,71.03
2018-12-29T17:37:26.099Z,71.87
2018-12-29T17:39:59.726Z,71.50
2018-12-29T17:42:33.522Z,71.16
2018-12-29T17:45:07.139Z,71.60
2018-12-29T17:47:40.649Z,71.39
2018-12-29T17:50:14.373Z,71.61
2018-12-29T17:52:47.888Z,71.38
2018-12-29T17:55:21.430Z,71.29
2018-12-29T17:57:55.324Z,71.09
2018-12-29T18:00:30.323Z,71.16
2018-12-29T18:03:04.106Z,71.19
2018-12-29T18:05:37.761Z,71.28
2018-12-29T18:08:11.369Z,71.48
2018-12-29T18:10:45.104Z,71.39
2018-12-29T18:13:18.610Z,71.28
2018-12-29T18:15:52.257Z,71.49
2018-12-29T18:18:25.788Z,71.34
2018-12-29T18:20:59.261Z,71.15
2018-12-29T18:23:33.224Z,71.09
2018-12-29T18:26:06.935Z,71.13
2018-12-29T18:28:40.528Z,71.35
2018-12-29T18:31:14.028Z,71.20
2018-12-29T18:33:47.651Z,71.34
2018-12-29T18:36:21.364Z,71.45
2018-12-29T18:38:54.887Z,71.28
2018-12-29T18:41:28.795Z,71.47
2018-12-29T18:44:02.409Z,71.77
2018-12-29T18:46:36.024Z,71.90
2018-12-29T18:49:09.687Z,71.46
2018-12-29T18:51:43.350Z,71.60
2018-12-29T18:54:16.885Z,71.44
2018-12-29T18:56:50.435Z,71.38
2018-12-29T18:59:23.947Z,71.48
2018-12-29T19:01:58.066Z,71.25
2018-12-29T19:04:31.701Z,71.52
2018-12-29T19:07:05.309Z,71.24
2018-12-29T19:09:38.908Z,71.50
2018-12-29T19:12:12.365Z,71.48
2018-12-29T19:14:45.810Z,71.61
2018-12-29T19:17:19.389Z,71.12
2018-12-29T19:19:53.100Z,71.46
2018-12-29T19:22:26.797Z,71.38
2018-12-29T19:25:00.374Z,71.28
2018-12-29T19:27:34.164Z,71.32
2018-12-29T19:30:08.280Z,71.28
2018-12-29T19:32:41.978Z,71.32
2018-12-29T19:35:15.872Z,71.11
2018-12-29T19:37:49.422Z,71.23
2018-12-29T19:40:22.895Z,71.26
2018-12-29T19:42:56.793Z,71.07
2018-12-29T19:45:30.387Z,71.34
2018-12-29T19:48:04.313Z,71.35
2018-12-29T19:50:38.113Z,71.32
2018-12-29T19:53:11.736Z,71.39
2018-12-29T19:55:45.269Z,71.27
2018-12-29T19:58:18.741Z,71.46
2018-12-29T20:00:52.365Z,71.19
2018-12-29T20:03:25.909Z,71.22
2018-12-29T20:05:59.513Z,71.20
2018-12-29T20:08:33.805Z,71.37
2018-12-29T20:11:07.380Z,71.36
2018-12-29T20:13:40.951Z,71.31
2018-12-29T20:16:14.934Z,71.36
2018-12-29T20:18:48.937Z,71.49
2018-12-29T20:21:22.391Z,71.35
2018-12-29T20:23:55.967Z,71.34
2018-12-29T20:26:29.588Z,71.29
2018-12-29T20:29:03.470Z,71.76
2018-12-29T20:31:36.980Z,72.12
2018-12-29T20:34:10.799Z,71.74
2018-12-29T20:36:44.325Z,71.50
2018-12-29T20:39:17.908Z,71.76
2018-12-29T20:41:51.395Z,71.54
2018-12-29T20:44:24.945Z,71.83
2018-12-29T20:47:01.429Z,71.73
2018-12-29T20:49:35.077Z,71.26
2018-12-29T20:52:08.587Z,72.04
2018-12-29T20:54:42.259Z,72.09
2018-12-29T20:57:16.146Z,72.08
2018-12-29T20:59:49.697Z,71.95
2018-12-29T21:02:23.303Z,71.71
2018-12-29T21:04:56.858Z,71.77
2018-12-29T21:07:30.743Z,71.50
2018-12-29T21:10:05.912Z,71.34
2018-12-29T21:12:39.556Z,71.51
2018-12-29T21:15:13.096Z,71.65
2018-12-29T21:17:46.960Z,71.91
2018-12-29T21:20:20.692Z,71.84
2018-12-29T21:22:54.125Z,71.53
2018-12-29T21:25:27.735Z,71.38
2018-12-29T21:28:01.458Z,71.62
2018-12-29T21:30:34.999Z,71.90
2018-12-29T21:33:08.518Z,71.72
2018-12-29T21:35:42.000Z,71.40
2018-12-29T21:38:15.855Z,71.48
2018-12-29T21:40:49.468Z,71.30
2018-12-29T21:43:22.981Z,71.21
2018-12-29T21:45:56.520Z,71.34
2018-12-29T21:48:30.211Z,71.38
2018-12-29T21:51:03.831Z,71.66
2018-12-29T21:53:37.341Z,71.45
2018-12-29T21:56:10.965Z,71.26
2018-12-29T21:58:44.499Z,71.29
2018-12-29T22:01:17.962Z,71.18
2018-12-29T22:03:51.553Z,71.54
2018-12-29T22:06:25.094Z,71.24
2018-12-29T22:08:58.693Z,71.42
2018-12-29T22:11:32.309Z,71.59
2018-12-29T22:14:05.887Z,71.68
2018-12-29T22:16:39.492Z,71.76
2018-12-29T22:19:13.014Z,71.57
2018-12-29T22:21:46.613Z,71.44
2018-12-29T22:24:20.111Z,71.29
2018-12-29T22:26:53.817Z,70.96
2018-12-29T22:29:27.334Z,71.33
2018-12-29T22:32:00.859Z,71.40
2018-12-29T22:34:34.367Z,71.30
2018-12-29T22:37:07.998Z,71.36
2018-12-29T22:39:41.426Z,71.24
2018-12-29T22:42:14.959Z,71.42
2018-12-29T22:44:48.482Z,71.16
2018-12-29T22:47:22.032Z,71.68
2018-12-29T22:49:55.541Z,71.81
2018-12-29T22:52:29.103Z,71.45
2018-12-29T22:55:02.637Z,71.63
2018-12-29T22:57:36.413Z,71.72
2018-12-29T23:00:13.870Z,71.94
2018-12-29T23:02:47.519Z,71.77
2018-12-29T23:05:21.296Z,71.62
2018-12-29T23:07:54.920Z,71.88
2018-12-29T23:10:28.354Z,71.77
2018-12-29T23:13:02.270Z,71.85
2018-12-29T23:15:35.698Z,71.91
2018-12-29T23:18:09.308Z,71.69
2018-12-29T23:20:48.992Z,71.55
2018-12-29T23:23:18.340Z,71.67
2018-12-29T23:25:52.137Z,71.56
2018-12-29T23:28:25.766Z,71.75
2018-12-29T23:30:59.548Z,71.72
2018-12-29T23:33:33.158Z,71.69
2018-12-29T23:36:06.694Z,71.90
2018-12-29T23:38:40.236Z,71.72
2018-12-29T23:41:13.808Z,71.65
2018-12-29T23:43:47.592Z,71.85
2018-12-29T23:46:21.118Z,71.88
2018-12-29T23:48:54.752Z,72.06
2018-12-29T23:51:28.323Z,71.79
2018-12-29T23:54:01.960Z,71.66
2018-12-29T23:56:35.647Z,71.69
2018-12-29T23:59:09.278Z,71.65
